Aeroporto :
LOGIN :

Iscrizione | Disclaimer

   EN    FR    IT 

 










Sommario :    VFR   VFR Marginale   IFR   IFR Intensivo   IFR Molto Intensivo
Visibilità : 
Base nubi : 
>= 8 km
>= 3000ft
5 / 8 km
1000 / 3000 ft
1500m / 5 km
500 / 1000 ft
800 / 1500m
200 / 500 ft
< 800m
< 200 ft
Simboli :   Temporali  Nebbia  Neve Forte  Precipitazioni Forti  Vento > 20 kt
SIGMETs :   Varie  Temporali  Ghiacco  Turbolenza  Onda orograficha  Ceneri Vulcaniche






- Altitudine del aeroporto : 1036 ft
- Codice IATA : CLJ


LRCL - Cluj-Napoca International

ULTIMO METAR :
  • 210600Z VRB02KT 9999 OVC023 M01/M03 Q1043 R07/19//95

METARs OBSOLETI :
  • 210530Z VRB01KT 6000 OVC023 M01/M04 Q1043 R07/19//95
  • 210500Z VRB01KT 6000 OVC024 M01/M04 Q1043 R07/19//95
  • 210430Z VRB01KT 6000 OVC025 M01/M03 Q1043 R07/19//95
  • 210400Z VRB01KT 6000 OVC025 M01/M04 Q1043 R07/19//95
  • 210330Z AUTO 11002KT 9999 OVC024/// M01/M04 Q1043

TAF TAF LRCL
Valido dal 21 a 06 ore il 21 a 15 ore UTC


210500Z 2106/2115 VRB04KT 8000 OVC025



MetMap, La meteo Aeronautica in un colpo d'occhio ! - Copyright ORBIFLY Dicembre 2007 - Disclaimer

ORBIFLY MET'MAP TEAM :

Programmazione e sviluppo : Alexandra Zaïnal
Concezione : Baudouin d'Aumeries
Aiuto per la programmazione : Marc-Olivier Méhu
Supporto tecnico e logistico : Manuel Goepfert
Aiuto per la traduzione : Arnaldo La Scala

Contatto : metmap@orbifly.com




FONTI E CREDITI :

   NOAA